Terminal Aerodrome Forecast
Issued by NWS Grand Forks, ND

Home | Current Version | Previous Version | Graphics & Text | Print | Product List | Glossary On
Versions: 1 2 3 4 5 6 7 8 9 10 11 12 13 14 15
739
FTUS43 KFGF 281730
TAFGFK
TAF
KGFK 281730Z 2818/2918 VRB03KT P6SM BKN025
     FM281900 05004KT P6SM SCT030
     FM290800 VRB03KT 6SM BR FEW120=

USA.gov is the U.S. government's official web portal to all federal, state and local government web resources and services.